sensor_id;sensor_type;location;lat;lon;timestamp;pressure;altitude;pressure_sealevel;temperature;humidity
1776;BME280;885;42.626;23.200;2023-07-24T00:00:49;93757.00;;;18.23;71.72
1776;BME280;885;42.626;23.200;2023-07-24T00:03:17;93267.16;;;18.14;70.15
1776;BME280;885;42.626;23.200;2023-07-24T00:05:44;93237.53;;;18.29;67.64
1776;BME280;885;42.626;23.200;2023-07-24T00:08:11;92906.66;;;18.27;66.13
1776;BME280;885;42.626;23.200;2023-07-24T00:10:37;92631.84;;;18.21;65.93
1776;BME280;885;42.626;23.200;2023-07-24T00:13:04;92918.72;;;18.22;67.77
1776;BME280;885;42.626;23.200;2023-07-24T00:15:31;92877.91;;;18.10;69.81
1776;BME280;885;42.626;23.200;2023-07-24T00:17:58;92916.34;;;18.16;68.54
1776;BME280;885;42.626;23.200;2023-07-24T00:20:26;92393.25;;;18.17;65.39
1776;BME280;885;42.626;23.200;2023-07-24T00:22:52;92371.16;;;18.26;64.41
1776;BME280;885;42.626;23.200;2023-07-24T00:25:20;92044.78;;;18.30;62.00
1776;BME280;885;42.626;23.200;2023-07-24T00:27:47;91876.69;;;18.19;63.46
1776;BME280;885;42.626;23.200;2023-07-24T00:30:14;92692.50;;;18.25;67.45
1776;BME280;885;42.626;23.200;2023-07-24T00:32:40;93011.75;;;18.24;69.10
1776;BME280;885;42.626;23.200;2023-07-24T00:35:07;92562.97;;;18.31;65.39
1776;BME280;885;42.626;23.200;2023-07-24T00:37:37;92012.19;;;18.21;64.00
1776;BME280;885;42.626;23.200;2023-07-24T00:40:04;91950.28;;;18.24;63.41
1776;BME280;885;42.626;23.200;2023-07-24T00:42:31;92449.03;;;18.28;65.75
1776;BME280;885;42.626;23.200;2023-07-24T00:44:58;92505.19;;;18.27;66.27
1776;BME280;885;42.626;23.200;2023-07-24T00:47:25;92343.78;;;18.27;65.37
1776;BME280;885;42.626;23.200;2023-07-24T00:49:53;91991.97;;;18.19;65.11
1776;BME280;885;42.626;23.200;2023-07-24T00:52:20;91954.47;;;18.17;65.04
1776;BME280;885;42.626;23.200;2023-07-24T00:54:49;91991.13;;;18.14;65.73
1776;BME280;885;42.626;23.200;2023-07-24T00:57:16;92091.25;;;18.14;66.52
1776;BME280;885;42.626;23.200;2023-07-24T00:59:44;92196.63;;;18.21;66.17
1776;BME280;885;42.626;23.200;2023-07-24T01:02:11;92329.09;;;18.17;67.63
1776;BME280;885;42.626;23.200;2023-07-24T01:04:38;92334.88;;;18.17;67.64
1776;BME280;885;42.626;23.200;2023-07-24T01:07:05;92283.09;;;18.21;66.63
1776;BME280;885;42.626;23.200;2023-07-24T01:09:32;92025.09;;;18.18;66.16
1776;BME280;885;42.626;23.200;2023-07-24T01:12:03;91841.84;;;18.05;67.12
1776;BME280;885;42.626;23.200;2023-07-24T01:14:36;91676.03;;;17.96;67.36
1776;BME280;885;42.626;23.200;2023-07-24T01:17:08;91236.06;;;17.98;64.43
1776;BME280;885;42.626;23.200;2023-07-24T01:19:37;90935.78;;;17.98;62.30
1776;BME280;885;42.626;23.200;2023-07-24T01:22:12;90494.44;;;17.91;60.76
1776;BME280;885;42.626;23.200;2023-07-24T01:25:05;90477.91;;;17.92;61.12
1776;BME280;885;42.626;23.200;2023-07-24T01:27:40;90348.38;;;17.82;61.98
1776;BME280;885;42.626;23.200;2023-07-24T01:30:08;90340.47;;;17.80;62.59
1776;BME280;885;42.626;23.200;2023-07-24T01:32:35;90514.63;;;17.89;62.36
1776;BME280;885;42.626;23.200;2023-07-24T01:35:02;90712.59;;;17.91;63.43
1776;BME280;885;42.626;23.200;2023-07-24T01:37:30;90717.63;;;17.92;63.65
1776;BME280;885;42.626;23.200;2023-07-24T01:39:57;90775.91;;;17.89;63.90
1776;BME280;885;42.626;23.200;2023-07-24T01:42:25;90841.47;;;17.94;64.23
1776;BME280;885;42.626;23.200;2023-07-24T01:44:54;90881.06;;;17.92;64.60
1776;BME280;885;42.626;23.200;2023-07-24T01:47:21;90961.69;;;17.92;65.24
1776;BME280;885;42.626;23.200;2023-07-24T01:49:48;91109.31;;;17.94;65.81
1776;BME280;885;42.626;23.200;2023-07-24T01:52:15;91027.94;;;17.92;65.48
1776;BME280;885;42.626;23.200;2023-07-24T01:54:42;90875.28;;;17.88;65.46
1776;BME280;885;42.626;23.200;2023-07-24T01:57:08;90935.03;;;17.91;65.08
1776;BME280;885;42.626;23.200;2023-07-24T01:59:35;90837.88;;;17.94;64.37
1776;BME280;885;42.626;23.200;2023-07-24T02:02:04;90567.16;;;17.94;62.34
1776;BME280;885;42.626;23.200;2023-07-24T02:04:30;90741.41;;;17.97;63.30
1776;BME280;885;42.626;23.200;2023-07-24T02:06:57;90986.22;;;18.01;64.23
1776;BME280;885;42.626;23.200;2023-07-24T02:09:24;91444.34;;;18.11;65.60
1776;BME280;885;42.626;23.200;2023-07-24T02:11:50;91729.69;;;18.17;66.69
1776;BME280;885;42.626;23.200;2023-07-24T02:14:18;92048.03;;;18.14;69.05
1776;BME280;885;42.626;23.200;2023-07-24T02:16:46;92009.00;;;18.07;69.89
1776;BME280;885;42.626;23.200;2023-07-24T02:19:14;91448.38;;;17.88;69.47
1776;BME280;885;42.626;23.200;2023-07-24T02:21:40;91122.69;;;17.64;71.44
1776;BME280;885;42.626;23.200;2023-07-24T02:24:07;90824.78;;;17.65;69.57
1776;BME280;885;42.626;23.200;2023-07-24T02:26:34;90632.66;;;17.65;68.03
1776;BME280;885;42.626;23.200;2023-07-24T02:29:00;91321.22;;;17.54;75.57
1776;BME280;885;42.626;23.200;2023-07-24T02:31:27;91496.13;;;17.55;76.03
1776;BME280;885;42.626;23.200;2023-07-24T02:33:54;91882.84;;;17.68;76.00
1776;BME280;885;42.626;23.200;2023-07-24T02:36:22;91942.84;;;17.79;74.16
1776;BME280;885;42.626;23.200;2023-07-24T02:38:49;91175.38;;;17.76;69.21
1776;BME280;885;42.626;23.200;2023-07-24T02:41:15;91125.66;;;17.70;69.89
1776;BME280;885;42.626;23.200;2023-07-24T02:43:42;90729.78;;;17.59;69.44
1776;BME280;885;42.626;23.200;2023-07-24T02:46:09;91083.75;;;17.53;73.31
1776;BME280;885;42.626;23.200;2023-07-24T02:48:36;91606.34;;;17.64;74.83
1776;BME280;885;42.626;23.200;2023-07-24T02:51:02;91769.91;;;17.71;74.35
1776;BME280;885;42.626;23.200;2023-07-24T02:53:30;92124.28;;;17.79;75.01
1776;BME280;885;42.626;23.200;2023-07-24T02:55:57;92032.81;;;17.78;74.43
1776;BME280;885;42.626;23.200;2023-07-24T02:58:24;91829.72;;;17.75;73.36
1776;BME280;885;42.626;23.200;2023-07-24T03:00:50;91535.13;;;17.66;73.38
1776;BME280;885;42.626;23.200;2023-07-24T03:03:17;91471.69;;;17.58;74.12
1776;BME280;885;42.626;23.200;2023-07-24T03:05:44;91122.59;;;17.52;73.00
1776;BME280;885;42.626;23.200;2023-07-24T03:08:11;90734.03;;;17.45;71.10
1776;BME280;885;42.626;23.200;2023-07-24T03:10:41;90674.31;;;17.42;71.28
1776;BME280;885;42.626;23.200;2023-07-24T03:13:08;90453.47;;;17.44;69.75
1776;BME280;885;42.626;23.200;2023-07-24T03:15:34;90513.19;;;17.46;69.60
1776;BME280;885;42.626;23.200;2023-07-24T03:18:01;90395.91;;;17.38;69.98
1776;BME280;885;42.626;23.200;2023-07-24T03:20:28;90347.00;;;17.38;70.02
1776;BME280;885;42.626;23.200;2023-07-24T03:22:54;90272.22;;;17.36;69.42
1776;BME280;885;42.626;23.200;2023-07-24T03:25:21;90234.13;;;17.34;69.95
1776;BME280;885;42.626;23.200;2023-07-24T03:27:49;90367.88;;;17.41;69.63
1776;BME280;885;42.626;23.200;2023-07-24T03:30:16;90431.16;;;17.47;68.32
1776;BME280;885;42.626;23.200;2023-07-24T03:32:43;90459.22;;;17.46;69.23
1776;BME280;885;42.626;23.200;2023-07-24T03:35:10;90292.34;;;17.46;68.50
1776;BME280;885;42.626;23.200;2023-07-24T03:37:36;90466.41;;;17.41;70.43
1776;BME280;885;42.626;23.200;2023-07-24T03:40:04;90833.31;;;17.46;72.14
1776;BME280;885;42.626;23.200;2023-07-24T03:42:31;91013.94;;;17.50;72.81
1776;BME280;885;42.626;23.200;2023-07-24T03:44:59;91078.00;;;17.53;72.65
1776;BME280;885;42.626;23.200;2023-07-24T03:47:26;91176.63;;;17.57;72.71
1776;BME280;885;42.626;23.200;2023-07-24T03:49:53;91328.59;;;17.67;72.05
1776;BME280;885;42.626;23.200;2023-07-24T03:52:20;91354.47;;;17.65;72.14
1776;BME280;885;42.626;23.200;2023-07-24T03:54:47;91036.31;;;17.60;70.82
1776;BME280;885;42.626;23.200;2023-07-24T03:57:13;91497.03;;;17.68;73.12
1776;BME280;885;42.626;23.200;2023-07-24T03:59:40;91887.19;;;17.69;75.50
1776;BME280;885;42.626;23.200;2023-07-24T04:02:08;92154.81;;;17.63;78.82
1776;BME280;885;42.626;23.200;2023-07-24T04:04:35;92375.91;;;17.66;79.29
1776;BME280;885;42.626;23.200;2023-07-24T04:07:02;92270.06;;;17.65;78.46
1776;BME280;885;42.626;23.200;2023-07-24T04:09:29;91774.66;;;17.57;75.94
1776;BME280;885;42.626;23.200;2023-07-24T04:11:56;91158.38;;;17.36;75.77
1776;BME280;885;42.626;23.200;2023-07-24T04:14:23;91256.13;;;17.30;77.82
1776;BME280;885;42.626;23.200;2023-07-24T04:16:49;90969.09;;;17.23;76.53
1776;BME280;885;42.626;23.200;2023-07-24T04:19:17;90672.09;;;17.28;73.45
1776;BME280;885;42.626;23.200;2023-07-24T04:21:44;91226.09;;;17.43;74.85
1776;BME280;885;42.626;23.200;2023-07-24T04:24:11;91787.59;;;17.58;76.08
1776;BME280;885;42.626;23.200;2023-07-24T04:26:38;92178.16;;;17.75;75.41
1776;BME280;885;42.626;23.200;2023-07-24T04:29:05;92916.47;;;17.81;79.16
1776;BME280;885;42.626;23.200;2023-07-24T04:31:32;92801.56;;;17.70;80.41
1776;BME280;885;42.626;23.200;2023-07-24T04:33:59;93218.72;;;17.75;81.78
1776;BME280;885;42.626;23.200;2023-07-24T04:36:27;93779.72;;;17.75;85.22
1776;BME280;885;42.626;23.200;2023-07-24T04:38:54;94072.47;;;17.80;85.54
1776;BME280;885;42.626;23.200;2023-07-24T04:41:20;93899.38;;;17.76;84.94
1776;BME280;885;42.626;23.200;2023-07-24T04:43:47;93572.47;;;17.63;85.14
1776;BME280;885;42.626;23.200;2023-07-24T04:46:14;93718.31;;;17.57;86.75
1776;BME280;885;42.626;23.200;2023-07-24T04:48:41;94190.03;;;17.70;86.58
1776;BME280;885;42.626;23.200;2023-07-24T04:51:07;94656.19;;;17.83;86.68
1776;BME280;885;42.626;23.200;2023-07-24T04:53:35;94748.69;;;17.87;86.38
1776;BME280;885;42.626;23.200;2023-07-24T04:56:02;94412.38;;;17.78;85.60
1776;BME280;885;42.626;23.200;2023-07-24T04:58:29;94805.00;;;17.88;86.33
1776;BME280;885;42.626;23.200;2023-07-24T05:00:56;95455.75;;;17.97;87.85
1776;BME280;885;42.626;23.200;2023-07-24T05:03:22;95050.28;;;17.92;86.26
1776;BME280;885;42.626;23.200;2023-07-24T05:05:54;94852.31;;;17.85;86.15
1776;BME280;885;42.626;23.200;2023-07-24T05:08:21;95563.16;;;17.97;87.68
1776;BME280;885;42.626;23.200;2023-07-24T05:10:53;96073.88;;;18.09;87.74
1776;BME280;885;42.626;23.200;2023-07-24T05:13:20;95903.03;;;18.18;85.09
1776;BME280;885;42.626;23.200;2023-07-24T05:15:47;95560.25;;;18.24;82.68
1776;BME280;885;42.626;23.200;2023-07-24T05:18:13;96208.53;;;18.31;84.28
1776;BME280;885;42.626;23.200;2023-07-24T05:20:43;96592.16;;;18.44;83.94
1776;BME280;885;42.626;23.200;2023-07-24T05:23:09;97014.75;;;18.49;85.21
1776;BME280;885;42.626;23.200;2023-07-24T05:25:36;96941.41;;;18.44;85.31
1776;BME280;885;42.626;23.200;2023-07-24T05:28:04;96990.16;;;18.55;83.82
1776;BME280;885;42.626;23.200;2023-07-24T05:30:32;98201.66;;;18.75;86.14
1776;BME280;885;42.626;23.200;2023-07-24T05:32:59;98506.56;;;18.81;85.86
1776;BME280;885;42.626;23.200;2023-07-24T05:35:25;98866.41;;;18.93;84.91
1776;BME280;885;42.626;23.200;2023-07-24T05:37:52;99813.59;;;19.02;87.46
1776;BME280;885;42.626;23.200;2023-07-24T05:40:19;100028.16;;;19.06;87.24
1776;BME280;885;42.626;23.200;2023-07-24T05:42:46;100586.28;;;19.15;87.90
1776;BME280;885;42.626;23.200;2023-07-24T05:45:14;100868.66;;;19.22;87.95
1776;BME280;885;42.626;23.200;2023-07-24T05:47:41;101253.63;;;19.27;88.12
1776;BME280;885;42.626;23.200;2023-07-24T05:50:08;101516.75;;;19.34;87.20
1776;BME280;885;42.626;23.200;2023-07-24T05:52:35;102159.38;;;19.47;87.60
1776;BME280;885;42.626;23.200;2023-07-24T05:55:01;102546.66;;;19.62;86.46
1776;BME280;885;42.626;23.200;2023-07-24T05:57:29;103039.28;;;19.75;85.95
1776;BME280;885;42.626;23.200;2023-07-24T05:59:55;104227.84;;;19.98;86.04
1776;BME280;885;42.626;23.200;2023-07-24T06:02:23;104850.59;;;20.38;80.38
1776;BME280;885;42.626;23.200;2023-07-24T06:04:50;105348.03;;;20.59;78.88
1776;BME280;885;42.626;23.200;2023-07-24T06:07:17;108390.22;;;21.11;79.46
1776;BME280;885;42.626;23.200;2023-07-24T06:09:44;109712.28;;;21.84;70.56
1776;BME280;885;42.626;23.200;2023-07-24T06:12:10;114823.53;;;22.55;73.92
1776;BME280;885;42.626;23.200;2023-07-24T06:14:37;115957.22;;;22.75;73.03
1776;BME280;885;42.626;23.200;2023-07-24T06:17:04;114988.13;;;22.72;71.16
1776;BME280;885;42.626;23.200;2023-07-24T06:19:32;115041.00;;;22.69;71.93
1776;BME280;885;42.626;23.200;2023-07-24T06:21:59;115217.56;;;22.65;73.14
1776;BME280;885;42.626;23.200;2023-07-24T06:24:26;114006.44;;;22.23;77.15
1776;BME280;885;42.626;23.200;2023-07-24T06:26:52;116791.16;;;22.68;76.71
1776;BME280;885;42.626;23.200;2023-07-24T06:29:19;120312.97;;;23.49;72.66
1776;BME280;885;42.626;23.200;2023-07-24T06:31:47;124607.69;;;24.36;71.72
1776;BME280;885;42.626;23.200;2023-07-24T06:34:15;124645.56;;;24.55;68.72
1776;BME280;885;42.626;23.200;2023-07-24T06:36:43;123890.31;;;24.53;65.78
1776;BME280;885;42.626;23.200;2023-07-24T06:39:09;123891.31;;;24.54;67.27
1776;BME280;885;42.626;23.200;2023-07-24T06:41:36;126248.63;;;25.05;65.57
1776;BME280;885;42.626;23.200;2023-07-24T06:44:03;129463.81;;;26.05;61.54
1776;BME280;885;42.626;23.200;2023-07-24T06:46:30;131874.34;;;26.75;59.49
1776;BME280;885;42.626;23.200;2023-07-24T06:48:57;131899.72;;;26.87;58.36
1776;BME280;885;42.626;23.200;2023-07-24T06:51:23;130448.44;;;27.16;52.14
1776;BME280;885;42.626;23.200;2023-07-24T06:53:52;128522.97;;;26.98;51.55
1776;BME280;885;42.626;23.200;2023-07-24T06:56:18;126556.94;;;26.58;52.20
1776;BME280;885;42.626;23.200;2023-07-24T06:58:45;122230.44;;;25.65;53.45
1776;BME280;885;42.626;23.200;2023-07-24T07:01:12;120245.53;;;25.10;55.89
1776;BME280;885;42.626;23.200;2023-07-24T07:03:38;119437.13;;;24.80;58.43
1776;BME280;885;42.626;23.200;2023-07-24T07:06:05;119391.31;;;24.56;60.38
1776;BME280;885;42.626;23.200;2023-07-24T07:08:32;118986.66;;;24.40;61.95
1776;BME280;885;42.626;23.200;2023-07-24T07:11:01;116131.50;;;24.01;60.91
1776;BME280;885;42.626;23.200;2023-07-24T07:13:27;118171.44;;;24.06;64.85
1776;BME280;885;42.626;23.200;2023-07-24T07:15:54;116278.00;;;23.89;62.54
1776;BME280;885;42.626;23.200;2023-07-24T07:18:21;114473.16;;;23.64;62.10
1776;BME280;885;42.626;23.200;2023-07-24T07:20:49;115026.78;;;23.63;63.71
1776;BME280;885;42.626;23.200;2023-07-24T07:23:16;116322.59;;;23.81;64.26
1776;BME280;885;42.626;23.200;2023-07-24T07:25:43;116959.00;;;23.87;64.69
1776;BME280;885;42.626;23.200;2023-07-24T07:28:13;118891.63;;;24.09;66.44
1776;BME280;885;42.626;23.200;2023-07-24T07:30:39;119686.19;;;24.14;67.48
1776;BME280;885;42.626;23.200;2023-07-24T07:33:06;120474.69;;;24.34;66.14
1776;BME280;885;42.626;23.200;2023-07-24T07:35:33;120499.75;;;24.47;64.80
1776;BME280;885;42.626;23.200;2023-07-24T07:38:00;121268.75;;;24.57;65.35
1776;BME280;885;42.626;23.200;2023-07-24T07:40:27;122045.91;;;24.70;65.48
1776;BME280;885;42.626;23.200;2023-07-24T07:42:54;123202.25;;;24.85;65.71
1776;BME280;885;42.626;23.200;2023-07-24T07:45:23;123198.31;;;24.83;65.70
1776;BME280;885;42.626;23.200;2023-07-24T07:47:50;123572.06;;;24.82;67.73
1776;BME280;885;42.626;23.200;2023-07-24T07:50:18;124722.44;;;24.94;68.57
1776;BME280;885;42.626;23.200;2023-07-24T07:52:45;125125.38;;;25.07;67.58
1776;BME280;885;42.626;23.200;2023-07-24T07:55:12;126281.97;;;25.21;69.63
1776;BME280;885;42.626;23.200;2023-07-24T07:57:39;126683.53;;;25.34;68.10
1776;BME280;885;42.626;23.200;2023-07-24T08:00:06;126327.47;;;25.44;65.95
1776;BME280;885;42.626;23.200;2023-07-24T08:02:35;127110.78;;;25.59;66.08
1776;BME280;885;42.626;23.200;2023-07-24T08:05:05;127518.94;;;25.75;64.74
1776;BME280;885;42.626;23.200;2023-07-24T08:07:32;127921.19;;;25.87;63.58
1776;BME280;885;42.626;23.200;2023-07-24T08:09:59;127564.84;;;25.97;61.83
1776;BME280;885;42.626;23.200;2023-07-24T08:12:26;128727.41;;;26.13;62.69
1776;BME280;885;42.626;23.200;2023-07-24T08:14:53;129520.84;;;26.32;63.47
1776;BME280;885;42.626;23.200;2023-07-24T08:17:19;129546.75;;;26.45;61.50
1776;BME280;885;42.626;23.200;2023-07-24T08:19:47;130312.84;;;26.50;61.93
1776;BME280;885;42.626;23.200;2023-07-24T08:22:14;129902.22;;;26.34;63.43
1776;BME280;885;42.626;23.200;2023-07-24T08:24:41;129144.72;;;26.33;60.66
1776;BME280;885;42.626;23.200;2023-07-24T08:27:08;129541.56;;;26.42;60.65
1776;BME280;885;42.626;23.200;2023-07-24T08:29:35;130312.84;;;26.50;62.36
1776;BME280;885;42.626;23.200;2023-07-24T08:32:04;130740.47;;;26.74;60.29
1776;BME280;885;42.626;23.200;2023-07-24T08:34:30;127744.53;;;26.86;51.17
1776;BME280;885;42.626;23.200;2023-07-24T08:36:59;127806.78;;;27.17;48.74
1776;BME280;885;42.626;23.200;2023-07-24T08:39:25;127090.34;;;27.36;45.63
1776;BME280;885;42.626;23.200;2023-07-24T08:41:52;124809.41;;;27.28;43.69
1776;BME280;885;42.626;23.200;2023-07-24T08:44:20;125948.66;;;27.31;46.01
1776;BME280;885;42.626;23.200;2023-07-24T08:46:47;124458.94;;;27.41;42.39
1776;BME280;885;42.626;23.200;2023-07-24T08:49:15;126010.00;;;27.62;43.55
1776;BME280;885;42.626;23.200;2023-07-24T08:51:43;127167.50;;;27.74;45.88
1776;BME280;885;42.626;23.200;2023-07-24T08:54:12;127577.94;;;27.90;45.09
1776;BME280;885;42.626;23.200;2023-07-24T08:56:39;125316.72;;;27.93;40.77
1776;BME280;885;42.626;23.200;2023-07-24T08:59:07;125704.59;;;27.98;41.81
1776;BME280;885;42.626;23.200;2023-07-24T09:01:34;128005.00;;;28.14;44.46
1776;BME280;885;42.626;23.200;2023-07-24T09:04:01;127651.28;;;28.26;43.37
1776;BME280;885;42.626;23.200;2023-07-24T09:06:28;128058.09;;;28.41;42.28
1776;BME280;885;42.626;23.200;2023-07-24T09:08:55;128845.66;;;28.56;42.72
1776;BME280;885;42.626;23.200;2023-07-24T09:11:23;129633.78;;;28.71;42.95
1776;BME280;885;42.626;23.200;2023-07-24T09:13:50;130032.16;;;28.80;43.32
1776;BME280;885;42.626;23.200;2023-07-24T09:16:24;129291.28;;;28.88;41.47
1776;BME280;885;42.626;23.200;2023-07-24T09:18:51;128908.44;;;28.86;40.81
1776;BME280;885;42.626;23.200;2023-07-24T09:21:27;128496.97;;;28.70;42.17
1776;BME280;885;42.626;23.200;2023-07-24T09:23:54;127678.81;;;28.40;42.66
1776;BME280;885;42.626;23.200;2023-07-24T09:26:22;129231.41;;;28.59;44.48
1776;BME280;885;42.626;23.200;2023-07-24T09:28:52;130424.44;;;28.87;44.39
1776;BME280;885;42.626;23.200;2023-07-24T09:31:20;131984.25;;;29.08;45.52
1776;BME280;885;42.626;23.200;2023-07-24T09:33:47;132385.59;;;29.19;45.81
1776;BME280;885;42.626;23.200;2023-07-24T09:36:14;133923.00;;;29.28;47.79
1776;BME280;885;42.626;23.200;2023-07-24T09:38:42;131203.09;;;28.97;45.18
1776;BME280;885;42.626;23.200;2023-07-24T09:41:09;132377.09;;;29.15;45.59
1776;BME280;885;42.626;23.200;2023-07-24T09:43:38;132783.91;;;29.28;45.58
1776;BME280;885;42.626;23.200;2023-07-24T09:46:06;132765.88;;;29.19;46.27
1776;BME280;885;42.626;23.200;2023-07-24T09:48:33;132400.41;;;29.26;44.97
1776;BME280;885;42.626;23.200;2023-07-24T09:51:01;132800.84;;;29.36;44.94
1776;BME280;885;42.626;23.200;2023-07-24T09:53:32;135123.91;;;29.57;47.63
1776;BME280;885;42.626;23.200;2023-07-24T09:56:04;134364.59;;;29.57;46.57
1776;BME280;885;42.626;23.200;2023-07-24T09:58:33;133583.06;;;29.47;45.84
1776;BME280;885;42.626;23.200;2023-07-24T10:01:02;135123.91;;;29.57;47.63
1776;BME280;885;42.626;23.200;2023-07-24T10:03:32;135541.47;;;29.75;47.28
1776;BME280;885;42.626;23.200;2023-07-24T10:06:00;136352.38;;;29.99;46.61
1776;BME280;885;42.626;23.200;2023-07-24T10:08:27;136327.31;;;29.87;47.68
1776;BME280;885;42.626;23.200;2023-07-24T10:10:54;137119.13;;;30.02;48.33
1776;BME280;885;42.626;23.200;2023-07-24T10:13:21;137136.63;;;30.10;47.96
1776;BME280;885;42.626;23.200;2023-07-24T10:15:48;137534.41;;;30.18;47.44
1776;BME280;885;42.626;23.200;2023-07-24T10:18:17;137180.47;;;30.30;46.04
1776;BME280;885;42.626;23.200;2023-07-24T10:20:44;139135.78;;;30.54;47.51
1776;BME280;885;42.626;23.200;2023-07-24T10:23:16;139186.88;;;30.77;46.83
1776;BME280;885;42.626;23.200;2023-07-24T10:25:49;137159.63;;;30.20;46.21
1776;BME280;885;42.626;23.200;2023-07-24T10:28:17;135918.09;;;29.73;48.38
1776;BME280;885;42.626;23.200;2023-07-24T10:30:44;137138.81;;;30.11;47.52
1776;BME280;885;42.626;23.200;2023-07-24T10:33:19;137162.91;;;30.22;46.89
1776;BME280;885;42.626;23.200;2023-07-24T10:35:49;138755.19;;;30.54;47.34
1776;BME280;885;42.626;23.200;2023-07-24T10:38:16;139954.09;;;30.80;47.76
1776;BME280;885;42.626;23.200;2023-07-24T10:40:44;139166.91;;;30.68;46.74
1776;BME280;885;42.626;23.200;2023-07-24T10:43:13;139926.16;;;30.67;49.31
1776;BME280;885;42.626;23.200;2023-07-24T10:45:41;137946.66;;;30.32;47.88
1776;BME280;885;42.626;23.200;2023-07-24T10:48:09;137500.34;;;30.02;50.19
1776;BME280;885;42.626;23.200;2023-07-24T10:50:43;136282.66;;;29.66;50.80
1776;BME280;885;42.626;23.200;2023-07-24T10:53:11;135484.09;;;29.48;50.12
1776;BME280;885;42.626;23.200;2023-07-24T10:55:38;136686.59;;;29.77;49.51
1776;BME280;885;42.626;23.200;2023-07-24T10:58:05;135579.38;;;29.93;45.67
1776;BME280;885;42.626;23.200;2023-07-24T11:00:32;134773.25;;;29.71;46.25
1776;BME280;885;42.626;23.200;2023-07-24T11:02:59;135143.28;;;29.66;47.33
1776;BME280;885;42.626;23.200;2023-07-24T11:05:26;135941.97;;;29.85;47.76
1776;BME280;885;42.626;23.200;2023-07-24T11:07:54;137951.06;;;30.34;47.32
1776;BME280;885;42.626;23.200;2023-07-24T11:10:22;139148.00;;;30.59;48.34
1776;BME280;885;42.626;23.200;2023-07-24T11:12:49;135572.88;;;29.90;46.03
1776;BME280;885;42.626;23.200;2023-07-24T11:15:23;134751.75;;;29.61;47.37
1776;BME280;885;42.626;23.200;2023-07-24T11:17:51;133155.72;;;29.24;47.38
1776;BME280;885;42.626;23.200;2023-07-24T11:20:18;133946.50;;;29.39;47.64
1776;BME280;885;42.626;23.200;2023-07-24T11:22:45;135933.28;;;29.80;48.93
1776;BME280;885;42.626;23.200;2023-07-24T11:25:13;137575.06;;;30.36;46.71
1776;BME280;885;42.626;23.200;2023-07-24T11:27:41;139194.69;;;30.81;46.08
1776;BME280;885;42.626;23.200;2023-07-24T11:30:10;139625.69;;;31.03;45.79
1776;BME280;885;42.626;23.200;2023-07-24T11:32:38;140440.41;;;31.27;44.75
1776;BME280;885;42.626;23.200;2023-07-24T11:35:06;140078.22;;;31.35;44.20
1776;BME280;885;42.626;23.200;2023-07-24T11:37:33;138456.38;;;30.91;44.01
1776;BME280;885;42.626;23.200;2023-07-24T11:40:02;137623.38;;;30.58;45.22
1776;BME280;885;42.626;23.200;2023-07-24T11:42:35;137983.00;;;30.49;46.71
1776;BME280;885;42.626;23.200;2023-07-24T11:45:04;138750.72;;;30.52;48.01
1776;BME280;885;42.626;23.200;2023-07-24T11:47:31;137594.84;;;30.45;46.34
1776;BME280;885;42.626;23.200;2023-07-24T11:49:58;137995.13;;;30.54;46.04
1776;BME280;885;42.626;23.200;2023-07-24T11:52:26;138394.44;;;30.63;46.45
1776;BME280;885;42.626;23.200;2023-07-24T11:55:03;139999.94;;;31.00;46.69
1776;BME280;885;42.626;23.200;2023-07-24T11:57:31;140069.28;;;31.31;44.50
1776;BME280;885;42.626;23.200;2023-07-24T11:59:58;140890.22;;;31.58;44.17
1776;BME280;885;42.626;23.200;2023-07-24T12:02:28;140919.47;;;31.71;42.48
1776;BME280;885;42.626;23.200;2023-07-24T12:04:58;142902.75;;;32.04;43.62
1776;BME280;885;42.626;23.200;2023-07-24T12:07:30;140133.03;;;31.60;42.01
1776;BME280;885;42.626;23.200;2023-07-24T12:09:57;140078.22;;;31.35;44.00
1776;BME280;885;42.626;23.200;2023-07-24T12:12:24;140522.25;;;31.64;43.17
1776;BME280;885;42.626;23.200;2023-07-24T12:14:53;140511.09;;;31.59;43.44
1776;BME280;885;42.626;23.200;2023-07-24T12:17:20;140930.69;;;31.76;42.70
1776;BME280;885;42.626;23.200;2023-07-24T12:19:46;140928.47;;;31.75;42.19
1776;BME280;885;42.626;23.200;2023-07-24T12:22:14;140930.69;;;31.76;42.51
1776;BME280;885;42.626;23.200;2023-07-24T12:24:40;138897.03;;;31.18;43.45
1776;BME280;885;42.626;23.200;2023-07-24T12:27:07;138046.91;;;30.78;45.18
1776;BME280;885;42.626;23.200;2023-07-24T12:29:34;138852.69;;;30.98;45.54
1776;BME280;885;42.626;23.200;2023-07-24T12:32:02;138480.66;;;31.02;45.30
1776;BME280;885;42.626;23.200;2023-07-24T12:34:29;140389.94;;;31.04;49.25
1776;BME280;885;42.626;23.200;2023-07-24T12:36:56;140077.09;;;31.35;44.56
1776;BME280;885;42.626;23.200;2023-07-24T12:39:22;140118.50;;;31.54;43.03
1776;BME280;885;42.626;23.200;2023-07-24T12:41:49;140129.69;;;31.59;42.95
1776;BME280;885;42.626;23.200;2023-07-24T12:44:16;140517.78;;;31.62;43.31
1776;BME280;885;42.626;23.200;2023-07-24T12:46:43;140551.44;;;31.77;42.57
1776;BME280;885;42.626;23.200;2023-07-24T12:49:11;141350.59;;;31.93;43.52
1776;BME280;885;42.626;23.200;2023-07-24T12:51:38;142182.13;;;32.23;42.47
1776;BME280;885;42.626;23.200;2023-07-24T12:54:04;140216.94;;;31.98;40.00
1776;BME280;885;42.626;23.200;2023-07-24T12:56:31;138332.50;;;32.08;36.53
1776;BME280;885;42.626;23.200;2023-07-24T12:58:58;137967.47;;;32.16;35.62
1776;BME280;885;42.626;23.200;2023-07-24T13:01:24;139560.59;;;32.46;36.91
1776;BME280;885;42.626;23.200;2023-07-24T13:03:53;139165.44;;;32.40;36.62
1776;BME280;885;42.626;23.200;2023-07-24T13:06:22;140737.69;;;32.60;37.87
1776;BME280;885;42.626;23.200;2023-07-24T13:08:49;139169.84;;;32.42;36.30
1776;BME280;885;42.626;23.200;2023-07-24T13:11:15;139933.50;;;32.42;38.54
1776;BME280;885;42.626;23.200;2023-07-24T13:13:43;139183.22;;;32.48;36.59
1776;BME280;885;42.626;23.200;2023-07-24T13:16:10;138385.41;;;32.33;36.20